Time;durP1;ratioP1;P1;durP2;ratioP2;P2;SDS_P1;SDS_P2;PMS_P1;PMS_P2;Temp;Humidity;BMP_temperature;BMP_pressure;BME280_temperature;BME280_humidity;BME280_pressure;Samples;Min_cycle;Max_cycle;Signal;HPM_P1;HPM_P2
2023/03/08 00:01:54;;;;;;;18.60;7.07;;;;;;;;;;10548580;28;20050;-76
2023/03/08 00:07:08;;;;;;;9.88;4.35;;;;;;;;;;10548415;27;20180;-75
2023/03/08 00:12:11;;;;;;;13.02;4.53;;;;;;;;;;10556453;27;20039;-77
2023/03/08 00:17:17;;;;;;;13.65;4.90;;;;;;;;;;10545338;28;20056;-76
2023/03/08 00:22:19;;;;;;;11.48;4.65;;;;;;;;;;10551832;27;20071;-76
2023/03/08 00:27:23;;;;;;;14.40;5.43;;;;;;;;;;10550945;27;20055;-79
2023/03/08 00:32:28;;;;;;;11.57;4.70;;;;;;;;;;10559433;27;20358;-77
2023/03/08 00:37:34;;;;;;;8.65;3.40;;;;;;;;;;10547914;28;20402;-78
2023/03/08 00:42:37;;;;;;;9.65;4.30;;;;;;;;;;10544463;27;20124;-78
2023/03/08 00:47:41;;;;;;;14.73;5.72;;;;;;;;;;10518828;28;20050;-78
2023/03/08 00:52:44;;;;;;;12.02;4.88;;;;;;;;;;10541481;28;20093;-76
2023/03/08 00:57:47;;;;;;;7.22;3.95;;;;;;;;;;10528950;27;20044;-76
2023/03/08 01:02:51;;;;;;;12.73;4.95;;;;;;;;;;10540415;27;20571;-76
2023/03/08 01:07:55;;;;;;;13.25;5.82;;;;;;;;;;10556050;27;20111;-76
2023/03/08 01:12:58;;;;;;;9.03;3.53;;;;;;;;;;10544290;28;20147;-75
2023/03/08 01:18:02;;;;;;;16.53;4.47;;;;;;;;;;10535906;28;20046;-75
2023/03/08 01:23:05;;;;;;;;;;;;;;;;;;10540290;28;20052;-74
2023/03/08 01:28:09;;;;;;;14.33;5.50;;;;;;;;;;10547987;27;20433;-74
2023/03/08 01:33:13;;;;;;;15.93;4.97;;;;;;;;;;10548796;28;20130;-75
2023/03/08 01:38:20;;;;;;;9.95;3.00;;;;;;;;;;10548195;27;20103;-76
2023/03/08 01:43:24;;;;;;;13.32;4.88;;;;;;;;;;10555180;28;20036;-74
2023/03/08 01:48:31;;;;;;;11.82;5.20;;;;;;;;;;10548869;28;20468;-74
2023/03/08 01:53:35;;;;;;;11.57;4.70;;;;;;;;;;10556468;28;20067;-75
2023/03/08 01:58:39;;;;;;;13.25;4.32;;;;;;;;;;10555301;28;20123;-75
2023/03/08 02:03:46;;;;;;;13.18;4.53;;;;;;;;;;10566472;27;20525;-74
2023/03/08 02:08:51;;;;;;;5.13;2.30;;;;;;;;;;10562246;28;20040;-74
2023/03/08 02:13:57;;;;;;;9.17;3.57;;;;;;;;;;10566863;27;20043;-76
2023/03/08 02:19:06;;;;;;;15.90;5.30;;;;;;;;;;10553472;27;20133;-76
2023/03/08 02:24:19;;;;;;;8.60;4.03;;;;;;;;;;10562049;27;20042;-75
2023/03/08 02:29:24;;;;;;;;;;;;;;;;;;10560725;27;20032;-76
2023/03/08 02:34:28;;;;;;;8.30;3.20;;;;;;;;;;10548954;27;19920;-75
2023/03/08 02:39:32;;;;;;;12.13;3.03;;;;;;;;;;10538604;28;20144;-76
2023/03/08 02:44:40;;;;;;;14.87;5.77;;;;;;;;;;10536620;28;20036;-76
2023/03/08 02:49:43;;;;;;;9.03;3.77;;;;;;;;;;10543921;28;20043;-76
2023/03/08 02:54:47;;;;;;;17.00;5.57;;;;;;;;;;10550135;28;20493;-74
2023/03/08 02:59:50;;;;;;;10.18;4.22;;;;;;;;;;10542402;28;20046;-74
2023/03/08 03:04:53;;;;;;;12.63;4.37;;;;;;;;;;10539883;28;20055;-75
2023/03/08 03:09:57;;;;;;;14.87;5.47;;;;;;;;;;10548534;27;20048;-76
2023/03/08 03:15:01;;;;;;;8.80;3.87;;;;;;;;;;10556983;27;20115;-75
2023/03/08 03:20:15;;;;;;;10.33;3.70;;;;;;;;;;10528826;28;20031;-75
2023/03/08 03:25:20;;;;;;;12.07;4.95;;;;;;;;;;10538594;28;20044;-75
2023/03/08 03:30:23;;;;;;;15.03;4.33;;;;;;;;;;10545199;28;20032;-75
2023/03/08 03:35:34;;;;;;;7.67;3.43;;;;;;;;;;10541328;27;20051;-75
2023/03/08 03:40:47;;;;;;;10.90;3.13;;;;;;;;;;10539020;27;20044;-75
2023/03/08 03:45:55;;;;;;;13.80;4.82;;;;;;;;;;10559094;28;20473;-75
2023/03/08 03:51:00;;;;;;;13.27;4.53;;;;;;;;;;10547479;28;20059;-75
2023/03/08 03:56:06;;;;;;;13.73;3.67;;;;;;;;;;10557095;27;20039;-74
2023/03/08 04:01:09;;;;;;;12.03;3.97;;;;;;;;;;10538290;27;20057;-76
2023/03/08 04:06:14;;;;;;;13.05;5.18;;;;;;;;;;10552260;28;20496;-75
2023/03/08 04:11:20;;;;;;;8.33;3.23;;;;;;;;;;10543987;28;20039;-75
2023/03/08 04:16:26;;;;;;;9.40;3.80;;;;;;;;;;10546577;27;20043;-76
2023/03/08 04:21:32;;;;;;;11.83;4.53;;;;;;;;;;10549844;28;20271;-76
2023/03/08 04:26:46;;;;;;;12.33;4.47;;;;;;;;;;10542203;27;20028;-76
2023/03/08 04:31:59;;;;;;;9.93;3.67;;;;;;;;;;10546469;27;20254;-76
2023/03/08 04:37:02;;;;;;;15.63;3.63;;;;;;;;;;10554358;27;20522;-76
2023/03/08 04:42:07;;;;;;;15.73;4.85;;;;;;;;;;10546198;27;20093;-77
2023/03/08 04:47:10;;;;;;;16.25;5.13;;;;;;;;;;10546325;28;20043;-75
2023/03/08 04:52:13;;;;;;;16.15;5.15;;;;;;;;;;10555532;28;20520;-75
2023/03/08 04:57:18;;;;;;;3.93;2.43;;;;;;;;;;10543856;28;20032;-75
2023/03/08 05:02:22;;;;;;;18.17;5.43;;;;;;;;;;10550137;28;20473;-75
2023/03/08 05:07:25;;;;;;;13.07;4.43;;;;;;;;;;10551578;27;20031;-75
2023/03/08 05:12:29;;;;;;;10.20;4.05;;;;;;;;;;10550287;27;20039;-76
2023/03/08 05:17:32;;;;;;;;;;;;;;;;;;10560109;27;20044;-77
2023/03/08 05:22:34;;;;;;;6.97;3.03;;;;;;;;;;10547348;28;20278;-76
2023/03/08 05:28:08;;;;;;;12.33;3.93;;;;;;;;;;10548604;28;20063;-76
2023/03/08 05:33:11;;;;;;;17.10;5.40;;;;;;;;;;10551131;28;20082;-76
2023/03/08 05:38:14;;;;;;;15.10;5.07;;;;;;;;;;10538276;27;20413;-76
2023/03/08 05:43:19;;;;;;;18.03;6.10;;;;;;;;;;10552931;27;20381;-76
2023/03/08 05:48:21;;;;;;;6.40;3.00;;;;;;;;;;10550175;27;20038;-74
2023/03/08 05:53:27;;;;;;;14.90;5.72;;;;;;;;;;10539690;27;20090;-75
2023/03/08 05:58:32;;;;;;;12.30;5.07;;;;;;;;;;10543528;28;20401;-76
2023/03/08 06:03:35;;;;;;;15.93;5.00;;;;;;;;;;10540051;27;20122;-76
2023/03/08 06:08:38;;;;;;;15.63;6.25;;;;;;;;;;10549374;27;20044;-76
2023/03/08 06:13:43;;;;;;;12.68;4.43;;;;;;;;;;10544513;28;20092;-76
2023/03/08 06:18:46;;;;;;;17.20;4.82;;;;;;;;;;10537793;28;20036;-77
2023/03/08 06:23:50;;;;;;;25.15;11.15;;;;;;;;;;10564383;27;20047;-77
2023/03/08 06:28:55;;;;;;;19.65;6.57;;;;;;;;;;10540525;28;20549;-77
2023/03/08 06:33:57;;;;;;;16.27;6.03;;;;;;;;;;10556077;27;20134;-75
2023/03/08 06:39:01;;;;;;;9.18;3.92;;;;;;;;;;10552572;28;20394;-76
2023/03/08 06:44:05;;;;;;;10.57;4.88;;;;;;;;;;10558749;28;20043;-76
2023/03/08 06:49:09;;;;;;;19.08;8.93;;;;;;;;;;10543503;28;20123;-76
2023/03/08 06:54:16;;;;;;;19.23;7.00;;;;;;;;;;10556910;28;20036;-76
2023/03/08 06:59:21;;;;;;;19.35;6.95;;;;;;;;;;10554970;28;20089;-76
2023/03/08 07:04:23;;;;;;;;;;;;;;;;;;10534110;28;20032;-76
2023/03/08 07:09:26;;;;;;;16.38;5.28;;;;;;;;;;10563807;28;19923;-77
2023/03/08 07:14:30;;;;;;;20.90;9.07;;;;;;;;;;10547926;28;20047;-76
2023/03/08 07:19:33;;;;;;;14.23;5.72;;;;;;;;;;10546871;28;20044;-77
2023/03/08 07:24:36;;;;;;;20.42;7.43;;;;;;;;;;10532242;28;20137;-77
2023/03/08 07:29:40;;;;;;;14.25;5.07;;;;;;;;;;10532807;28;20523;-76
2023/03/08 07:34:43;;;;;;;12.70;5.25;;;;;;;;;;10553099;28;20594;-77
2023/03/08 07:39:46;;;;;;;20.13;6.10;;;;;;;;;;10536356;28;20040;-77
2023/03/08 07:44:50;;;;;;;18.20;5.97;;;;;;;;;;10547661;28;20039;-76
2023/03/08 07:49:54;;;;;;;15.82;6.85;;;;;;;;;;10539312;28;20032;-76
2023/03/08 07:54:57;;;;;;;21.42;5.75;;;;;;;;;;10534588;28;20046;-77
2023/03/08 08:00:07;;;;;;;8.80;3.47;;;;;;;;;;10550839;27;20506;-78
2023/03/08 08:05:10;;;;;;;9.95;4.45;;;;;;;;;;10547718;28;20051;-76
2023/03/08 08:10:13;;;;;;;10.80;4.32;;;;;;;;;;10560262;28;20036;-77
2023/03/08 08:15:18;;;;;;;13.57;6.13;;;;;;;;;;10556126;28;20523;-76
2023/03/08 08:20:23;;;;;;;16.63;7.20;;;;;;;;;;10543782;28;20040;-77
2023/03/08 08:25:26;;;;;;;;;;;;;;;;;;10551295;27;20476;-78
2023/03/08 08:30:30;;;;;;;19.85;8.48;;;;;;;;;;10549609;28;19920;-77
2023/03/08 08:35:33;;;;;;;16.58;4.07;;;;;;;;;;10532553;28;20046;-77
2023/03/08 08:40:45;;;;;;;11.73;4.22;;;;;;;;;;10546659;28;20129;-76
2023/03/08 08:45:53;;;;;;;18.08;6.63;;;;;;;;;;10542968;28;20055;-77
2023/03/08 08:50:58;;;;;;;12.73;4.97;;;;;;;;;;10548002;27;20048;-78
2023/03/08 08:56:09;;;;;;;11.68;4.47;;;;;;;;;;10549364;27;20192;-78
2023/03/08 09:01:30;;;;;;;8.35;3.70;;;;;;;;;;10552117;28;20374;-76
2023/03/08 09:06:32;;;;;;;11.90;5.00;;;;;;;;;;10533840;28;20050;-78
2023/03/08 09:11:35;;;;;;;9.52;4.10;;;;;;;;;;10563007;28;20115;-78
2023/03/08 09:16:59;;;;;;;21.02;9.25;;;;;;;;;;10543707;28;20064;-78
2023/03/08 09:22:03;;;;;;;17.88;8.27;;;;;;;;;;10539691;28;20023;-77
2023/03/08 09:27:06;;;;;;;12.60;5.60;;;;;;;;;;10543976;27;20066;-78
2023/03/08 09:32:11;;;;;;;23.38;8.48;;;;;;;;;;10541501;27;20435;-77
2023/03/08 09:37:14;;;;;;;12.68;5.55;;;;;;;;;;10540265;27;20043;-76
2023/03/08 09:42:19;;;;;;;20.35;8.25;;;;;;;;;;10551805;28;20039;-76
2023/03/08 09:47:29;;;;;;;12.32;5.20;;;;;;;;;;10540479;28;20083;-76
2023/03/08 09:52:37;;;;;;;21.35;7.93;;;;;;;;;;10545870;28;20463;-77
2023/03/08 09:57:43;;;;;;;13.73;4.95;;;;;;;;;;10523221;28;20485;-76
2023/03/08 10:02:52;;;;;;;9.40;4.30;;;;;;;;;;10543326;27;20074;-76
2023/03/08 10:07:57;;;;;;;22.35;10.82;;;;;;;;;;10535917;28;20135;-76
2023/03/08 10:13:05;;;;;;;19.00;7.88;;;;;;;;;;10549154;28;20425;-76
2023/03/08 10:18:13;;;;;;;17.35;6.55;;;;;;;;;;10539820;28;20448;-75
2023/03/08 10:23:17;;;;;;;15.13;5.43;;;;;;;;;;10547401;28;20044;-76
2023/03/08 10:28:21;;;;;;;9.98;3.88;;;;;;;;;;10545483;28;20039;-75
2023/03/08 10:33:30;;;;;;;8.35;3.03;;;;;;;;;;10553011;28;20090;-75
2023/03/08 10:38:34;;;;;;;12.98;5.85;;;;;;;;;;10554066;28;20047;-76
2023/03/08 10:43:39;;;;;;;23.92;7.28;;;;;;;;;;10547924;28;20190;-78
2023/03/08 10:48:44;;;;;;;16.70;4.88;;;;;;;;;;10548309;28;20074;-76
2023/03/08 10:53:53;;;;;;;22.10;8.38;;;;;;;;;;10537630;28;20047;-75
2023/03/08 10:58:57;;;;;;;14.13;7.03;;;;;;;;;;10540910;28;20044;-76
2023/03/08 11:04:05;;;;;;;14.90;4.27;;;;;;;;;;10537625;28;20270;-76
2023/03/08 11:09:19;;;;;;;9.43;3.72;;;;;;;;;;10532250;28;20187;-76
2023/03/08 11:14:23;;;;;;;15.18;7.63;;;;;;;;;;10543570;28;20109;-77
2023/03/08 11:19:43;;;;;;;11.83;6.27;;;;;;;;;;10539343;28;20039;-77
2023/03/08 11:24:57;;;;;;;20.08;6.35;;;;;;;;;;10543611;28;20412;-77
2023/03/08 11:30:01;;;;;;;;;;;;;;;;;;10546822;28;20092;-77
2023/03/08 11:35:09;;;;;;;10.73;4.35;;;;;;;;;;10551274;28;19920;-76
2023/03/08 11:40:25;;;;;;;8.98;3.30;;;;;;;;;;10555307;28;20468;-76
2023/03/08 11:45:34;;;;;;;10.38;4.18;;;;;;;;;;10560151;28;20099;-76
2023/03/08 11:50:39;;;;;;;10.35;4.63;;;;;;;;;;10550503;28;20118;-76
2023/03/08 11:55:49;;;;;;;13.13;5.55;;;;;;;;;;10558664;28;20039;-76
2023/03/08 12:00:54;;;;;;;10.82;3.70;;;;;;;;;;10543000;28;20024;-78
2023/03/08 12:06:02;;;;;;;8.73;4.13;;;;;;;;;;10544550;28;20043;-75
2023/03/08 12:11:10;;;;;;;12.80;3.78;;;;;;;;;;10557945;28;20072;-75
2023/03/08 12:16:16;;;;;;;14.70;5.13;;;;;;;;;;10561609;28;20040;-76
2023/03/08 12:21:24;;;;;;;12.77;5.18;;;;;;;;;;10568226;28;20036;-75
2023/03/08 12:26:31;;;;;;;9.13;3.53;;;;;;;;;;10566160;27;20104;-77
2023/03/08 12:31:37;;;;;;;11.40;4.47;;;;;;;;;;10553133;28;20044;-76
2023/03/08 12:36:41;;;;;;;12.88;6.30;;;;;;;;;;10551969;27;20027;-78
2023/03/08 12:41:44;;;;;;;;;;;;;;;;;;10543300;28;20040;-77
2023/03/08 12:46:50;;;;;;;7.90;3.95;;;;;;;;;;10530584;28;20441;-77
2023/03/08 12:52:06;;;;;;;6.05;2.67;;;;;;;;;;10537083;28;20470;-77
2023/03/08 12:57:15;;;;;;;8.60;2.65;;;;;;;;;;10538738;28;20596;-78
2023/03/08 13:02:24;;;;;;;4.65;2.05;;;;;;;;;;10543951;28;20123;-77
2023/03/08 13:07:28;;;;;;;5.28;2.60;;;;;;;;;;10553622;28;20039;-77
2023/03/08 13:12:38;;;;;;;4.18;2.17;;;;;;;;;;10547516;28;20662;-76
2023/03/08 13:17:48;;;;;;;2.50;1.23;;;;;;;;;;10555728;28;20133;-77
2023/03/08 13:22:59;;;;;;;2.38;1.38;;;;;;;;;;10546931;28;20115;-77
2023/03/08 13:28:04;;;;;;;3.20;1.00;;;;;;;;;;10545363;28;20046;-76
2023/03/08 13:33:12;;;;;;;0.80;0.80;;;;;;;;;;10553565;27;20052;-77
2023/03/08 13:38:20;;;;;;;1.13;0.75;;;;;;;;;;10544534;27;20039;-77
2023/03/08 13:43:24;;;;;;;1.27;0.93;;;;;;;;;;10538302;28;20417;-77
2023/03/08 13:48:30;;;;;;;2.38;1.40;;;;;;;;;;10537557;28;20071;-77
2023/03/08 13:53:34;;;;;;;1.27;0.70;;;;;;;;;;10548953;27;20131;-77
2023/03/08 13:58:38;;;;;;;1.77;1.02;;;;;;;;;;10544329;28;20083;-77
2023/03/08 14:03:43;;;;;;;1.70;0.88;;;;;;;;;;10544101;28;20501;-78
2023/03/08 14:08:46;;;;;;;1.92;0.73;;;;;;;;;;10537709;28;20063;-77
2023/03/08 14:13:52;;;;;;;4.07;1.00;;;;;;;;;;10540371;27;20185;-77
2023/03/08 14:18:56;;;;;;;2.58;0.52;;;;;;;;;;10548710;28;20111;-77
2023/03/08 14:24:00;;;;;;;1.02;0.85;;;;;;;;;;10540715;28;20135;-77
2023/03/08 14:29:12;;;;;;;2.22;1.00;;;;;;;;;;10535675;28;20146;-77
2023/03/08 14:34:19;;;;;;;1.48;0.73;;;;;;;;;;10525494;28;20476;-77
2023/03/08 14:39:23;;;;;;;3.33;0.95;;;;;;;;;;10541229;28;20043;-77
2023/03/08 14:44:28;;;;;;;1.08;0.73;;;;;;;;;;10551118;28;20057;-77
2023/03/08 14:49:32;;;;;;;2.20;1.05;;;;;;;;;;10535761;28;20051;-77
2023/03/08 14:54:35;;;;;;;1.45;0.90;;;;;;;;;;10544658;28;20039;-77
2023/03/08 14:59:39;;;;;;;2.65;0.70;;;;;;;;;;10538724;28;20367;-77
2023/03/08 15:04:45;;;;;;;1.45;0.85;;;;;;;;;;10551645;27;20043;-78
2023/03/08 15:09:48;;;;;;;1.33;0.85;;;;;;;;;;10556609;27;20127;-78
2023/03/08 15:14:52;;;;;;;2.15;1.10;;;;;;;;;;10552082;28;20097;-78
2023/03/08 15:19:56;;;;;;;0.75;0.60;;;;;;;;;;10555185;28;20027;-77
2023/03/08 15:24:59;;;;;;;2.15;1.00;;;;;;;;;;10563852;27;20237;-78
2023/03/08 15:30:02;;;;;;;3.03;0.83;;;;;;;;;;10548517;28;20044;-76
2023/03/08 15:35:07;;;;;;;1.13;0.80;;;;;;;;;;10550184;27;20499;-79
2023/03/08 15:40:21;;;;;;;2.05;0.90;;;;;;;;;;10550573;27;20140;-76
2023/03/08 15:45:28;;;;;;;1.33;0.77;;;;;;;;;;10542608;28;20070;-77
2023/03/08 15:50:33;;;;;;;1.23;0.67;;;;;;;;;;10547146;28;20046;-76
2023/03/08 15:55:37;;;;;;;1.88;1.02;;;;;;;;;;10546358;28;20127;-77
2023/03/08 16:00:40;;;;;;;3.00;1.45;;;;;;;;;;10548061;28;20040;-78
2023/03/08 16:05:45;;;;;;;1.10;0.83;;;;;;;;;;10555043;27;20036;-78
2023/03/08 16:10:48;;;;;;;1.55;1.10;;;;;;;;;;10539140;28;20059;-77
2023/03/08 16:15:51;;;;;;;;;;;;;;;;;;10545730;28;20044;-76
2023/03/08 16:20:56;;;;;;;3.85;1.50;;;;;;;;;;10564621;27;19984;-77
2023/03/08 16:26:00;;;;;;;3.70;0.93;;;;;;;;;;10562872;28;20422;-77
2023/03/08 16:31:20;;;;;;;2.72;1.20;;;;;;;;;;10557666;27;20035;-77
2023/03/08 16:36:24;;;;;;;2.90;0.88;;;;;;;;;;10554360;28;20071;-77
2023/03/08 16:41:28;;;;;;;2.80;1.25;;;;;;;;;;10535166;28;20325;-77
2023/03/08 16:46:32;;;;;;;1.55;1.02;;;;;;;;;;10551265;28;20043;-76
2023/03/08 16:51:37;;;;;;;2.15;1.17;;;;;;;;;;10556515;27;20063;-77
2023/03/08 16:56:40;;;;;;;2.53;1.15;;;;;;;;;;10558646;27;20047;-76
2023/03/08 17:01:43;;;;;;;4.13;1.83;;;;;;;;;;10558050;28;20059;-77
2023/03/08 17:06:48;;;;;;;1.88;1.27;;;;;;;;;;10547388;27;20100;-76
2023/03/08 17:11:50;;;;;;;5.00;1.45;;;;;;;;;;10565467;28;20129;-76
2023/03/08 17:16:53;;;;;;;3.05;1.50;;;;;;;;;;10559547;28;20031;-76
2023/03/08 17:21:57;;;;;;;3.30;1.23;;;;;;;;;;10554607;28;20071;-76
2023/03/08 17:27:01;;;;;;;5.88;1.13;;;;;;;;;;10538554;27;20135;-76
2023/03/08 17:32:04;;;;;;;2.88;1.52;;;;;;;;;;10550503;28;20067;-77
2023/03/08 17:37:11;;;;;;;2.05;1.23;;;;;;;;;;10539878;28;20148;-78
2023/03/08 17:42:14;;;;;;;1.75;1.00;;;;;;;;;;10538171;28;20028;-78
2023/03/08 17:47:16;;;;;;;2.80;1.80;;;;;;;;;;10529760;28;20134;-77
2023/03/08 17:52:20;;;;;;;2.45;1.33;;;;;;;;;;10541082;27;20036;-77
2023/03/08 17:57:23;;;;;;;;;;;;;;;;;;10538880;28;20055;-77
2023/03/08 18:02:26;;;;;;;1.40;0.88;;;;;;;;;;10557331;27;20412;-77
2023/03/08 18:07:30;;;;;;;2.05;1.33;;;;;;;;;;10551487;27;20418;-77
2023/03/08 18:12:33;;;;;;;2.03;0.90;;;;;;;;;;10554393;28;20035;-77
2023/03/08 18:17:38;;;;;;;2.72;1.08;;;;;;;;;;10551666;27;20036;-77
2023/03/08 18:22:45;;;;;;;1.80;0.80;;;;;;;;;;10555728;28;20042;-77
2023/03/08 18:27:48;;;;;;;2.40;1.23;;;;;;;;;;10550200;28;20048;-77
2023/03/08 18:32:52;;;;;;;1.85;0.90;;;;;;;;;;10524257;28;20035;-77
2023/03/08 18:37:56;;;;;;;2.30;0.93;;;;;;;;;;10546007;28;20415;-77
2023/03/08 18:42:59;;;;;;;1.42;1.00;;;;;;;;;;10547394;28;20176;-77
2023/03/08 18:48:02;;;;;;;2.70;1.15;;;;;;;;;;10541628;28;20090;-76
2023/03/08 18:53:07;;;;;;;1.60;0.60;;;;;;;;;;10545030;28;20059;-77
2023/03/08 18:58:10;;;;;;;2.03;0.80;;;;;;;;;;10545732;28;20597;-76
2023/03/08 19:03:13;;;;;;;2.35;1.10;;;;;;;;;;10553568;28;20054;-77
2023/03/08 19:08:17;;;;;;;2.70;1.02;;;;;;;;;;10551526;28;20050;-75
2023/03/08 19:13:19;;;;;;;0.95;0.60;;;;;;;;;;10567715;28;20039;-76
2023/03/08 19:18:23;;;;;;;1.58;0.80;;;;;;;;;;10560306;28;20043;-76
2023/03/08 19:23:27;;;;;;;1.13;0.70;;;;;;;;;;10556044;28;20198;-77
2023/03/08 19:28:30;;;;;;;2.80;1.00;;;;;;;;;;10551188;28;20090;-78
2023/03/08 19:33:33;;;;;;;1.20;0.73;;;;;;;;;;10566644;28;20051;-77
2023/03/08 19:38:37;;;;;;;0.38;0.38;;;;;;;;;;10535538;28;20043;-77
2023/03/08 19:43:40;;;;;;;2.78;0.80;;;;;;;;;;10563014;28;20201;-78
2023/03/08 19:48:43;;;;;;;0.40;0.40;;;;;;;;;;10565869;28;20192;-78
2023/03/08 19:53:48;;;;;;;0.77;0.47;;;;;;;;;;10560579;27;20085;-77
2023/03/08 19:58:55;;;;;;;0.40;0.40;;;;;;;;;;10564335;27;20644;-77
2023/03/08 20:04:00;;;;;;;1.38;0.50;;;;;;;;;;10563632;27;20042;-78
2023/03/08 20:09:06;;;;;;;0.88;0.68;;;;;;;;;;10563349;28;20534;-78
2023/03/08 20:14:09;;;;;;;2.25;1.20;;;;;;;;;;10572818;27;20085;-78
2023/03/08 20:19:13;;;;;;;2.90;1.00;;;;;;;;;;10570489;27;20119;-78
2023/03/08 20:24:18;;;;;;;3.95;1.88;;;;;;;;;;10563696;28;20036;-78
2023/03/08 20:29:21;;;;;;;1.33;0.82;;;;;;;;;;10560491;28;20063;-78
2023/03/08 20:34:34;;;;;;;3.30;1.80;;;;;;;;;;10543134;28;20040;-78
2023/03/08 20:39:38;;;;;;;1.67;0.88;;;;;;;;;;10542883;27;20048;-78
2023/03/08 20:44:41;;;;;;;2.83;1.30;;;;;;;;;;10583455;27;20038;-78
2023/03/08 20:49:45;;;;;;;1.88;1.00;;;;;;;;;;10571905;27;20085;-79
2023/03/08 20:54:52;;;;;;;4.78;1.00;;;;;;;;;;10567174;27;20154;-78
2023/03/08 20:59:54;;;;;;;4.45;1.60;;;;;;;;;;10566422;27;20044;-78
2023/03/08 21:04:57;;;;;;;5.38;2.47;;;;;;;;;;10573524;27;20032;-79
2023/03/08 21:10:02;;;;;;;2.80;1.20;;;;;;;;;;10561846;27;20048;-79
2023/03/08 21:15:06;;;;;;;4.90;1.30;;;;;;;;;;10559589;27;20063;-78
2023/03/08 21:20:11;;;;;;;1.65;0.98;;;;;;;;;;10544517;28;20145;-79
2023/03/08 21:25:15;;;;;;;3.22;1.50;;;;;;;;;;10547099;28;20107;-80
2023/03/08 21:30:20;;;;;;;2.83;1.33;;;;;;;;;;10552018;28;20035;-77
2023/03/08 21:35:23;;;;;;;;;;;;;;;;;;10550470;28;20063;-80
2023/03/08 21:40:27;;;;;;;4.32;1.75;;;;;;;;;;10549995;28;19930;-79
2023/03/08 21:45:30;;;;;;;6.63;2.33;;;;;;;;;;10552271;27;20035;-82
2023/03/08 21:50:33;;;;;;;3.22;1.60;;;;;;;;;;10552331;28;20089;-84
2023/03/08 21:55:40;;;;;;;0.95;0.40;;;;;;;;;;10559681;27;20144;-83
2023/03/08 22:00:42;;;;;;;1.83;0.68;;;;;;;;;;10596092;28;20062;-82
2023/03/08 22:05:47;;;;;;;1.50;1.03;;;;;;;;;;10609678;27;20047;-82
2023/03/08 22:10:56;;;;;;;1.50;0.60;;;;;;;;;;10594605;27;20323;-83
2023/03/08 22:16:01;;;;;;;3.60;1.33;;;;;;;;;;10579758;28;20072;-83
2023/03/08 22:21:05;;;;;;;1.10;0.77;;;;;;;;;;10573244;28;20039;-83
2023/03/08 22:26:20;;;;;;;;;;;;;;;;;;;;;
2023/03/08 22:31:34;;;;;;;2.30;0.95;;;;;;;;;;10562891;27;20031;-81
2023/03/08 22:36:48;;;;;;;2.78;1.48;;;;;;;;;;10571041;27;20060;-81
2023/03/08 22:41:55;;;;;;;1.00;0.88;;;;;;;;;;10565153;28;20471;-82
2023/03/08 22:46:59;;;;;;;0.80;0.40;;;;;;;;;;10557701;28;20460;-83
2023/03/08 22:52:03;;;;;;;2.17;0.82;;;;;;;;;;10562910;28;20032;-80
2023/03/08 22:57:07;;;;;;;1.30;0.80;;;;;;;;;;10578161;28;20051;-80
2023/03/08 23:02:11;;;;;;;2.65;0.52;;;;;;;;;;10559297;28;20084;-80
2023/03/08 23:07:17;;;;;;;2.33;0.93;;;;;;;;;;10580707;28;20106;-79
2023/03/08 23:12:22;;;;;;;2.10;0.55;;;;;;;;;;10550365;28;20182;-80
2023/03/08 23:17:25;;;;;;;0.85;0.40;;;;;;;;;;10561925;28;20127;-79
2023/03/08 23:22:30;;;;;;;0.70;0.57;;;;;;;;;;10564124;28;20126;-78
2023/03/08 23:27:36;;;;;;;0.73;0.30;;;;;;;;;;10568716;27;20104;-78
2023/03/08 23:32:41;;;;;;;;;;;;;;;;;;10558957;28;20130;-78
2023/03/08 23:37:45;;;;;;;1.45;0.90;;;;;;;;;;10580390;27;19938;-79
2023/03/08 23:42:51;;;;;;;3.17;0.90;;;;;;;;;;10582484;27;20036;-77
2023/03/08 23:47:54;;;;;;;1.38;0.75;;;;;;;;;;10571440;28;20092;-78
2023/03/08 23:52:58;;;;;;;0.57;0.50;;;;;;;;;;10565853;27;20035;-78
2023/03/08 23:58:02;;;;;;;1.08;0.68;;;;;;;;;;10576365;27;20354;-78
